Terminal Aerodrome Forecast
Issued by NWS Houston/Galveston, TX

Home | Current Version | Previous Version | Text Only | Print | Product List | Glossary On
Versions: 1 2 3 4 5 6 7 8 9 10 11 12 13 14 15 16 17 18 19 20 21 22 23 24
000
FTUS44 KHGX 040520
TAFCLL
TAF
KCLL 040520Z 0406/0506 15007KT P6SM SKC
     FM041400 13007KT P6SM FEW030 SCT060
     FM041800 16008G15KT P6SM FEW050 SCT250
     FM050300 14008KT P6SM SCT250=

USA.gov is the U.S. government's official web portal to all federal, state and local government web resources and services.